Time;durP1;ratioP1;P1;durP2;ratioP2;P2;SDS_P1;SDS_P2;PMS_P1;PMS_P2;Temp;Humidity;BMP_temperature;BMP_pressure;BME280_temperature;BME280_humidity;BME280_pressure;Samples;Min_cycle;Max_cycle;Signal;HPM_P1;HPM_P2
2021/05/03 00:02:13;;;;;;;;;;;;;;;4.63;100.00;99410.16;4899120;29;19926;-77
2021/05/03 00:04:39;;;;;;;;;;;;;;;4.87;100.00;99415.22;4883531;29;19923;-77
2021/05/03 00:07:04;;;;;;;;;;;;;;;4.90;100.00;99412.66;4846564;29;1407774;-77
2021/05/03 00:09:29;;;;;;;;;;;;;;;4.91;100.00;99416.91;4893781;29;20322;-77
2021/05/03 00:11:55;;;;;;;;;;;;;;;4.74;100.00;99414.38;4918041;29;19912;-77
2021/05/03 00:14:20;;;;;;;;;;;;;;;4.69;100.00;99415.25;4891690;29;20439;-77
2021/05/03 00:16:45;;;;;;;;;;;;;;;4.96;100.00;99414.34;4891092;29;19946;-77
2021/05/03 00:19:11;;;;;;;;;;;;;;;5.20;100.00;99418.53;4916348;29;19948;-77
2021/05/03 00:21:36;;;;;;;;;;;;;;;4.84;100.00;99420.34;4889787;29;19918;-77
2021/05/03 00:24:02;;;;;;;;;;;;;;;4.96;100.00;99417.75;4891586;29;20484;-77
2021/05/03 00:26:27;;;;;;;;;;;;;;;5.09;100.00;99420.28;4884405;29;19919;-77
2021/05/03 00:28:53;;;;;;;;;;;;;;;5.13;100.00;99416.84;4895363;29;20435;-77
2021/05/03 00:31:18;;;;;;;;;;;;;;;5.17;100.00;99416.00;4895859;29;20078;-77
2021/05/03 00:33:43;;;;;;;;;;;;;;;5.16;100.00;99412.59;4899431;29;20373;-77
2021/05/03 00:36:09;;;;;;;;;;;;;;;5.12;100.00;99410.06;4897405;29;20018;-78
2021/05/03 00:38:34;;;;;;;;;;;;;;;4.77;100.00;99416.94;4898817;29;20040;-77
2021/05/03 00:41:00;;;;;;;;;;;;;;;5.06;100.00;99416.00;4912575;29;19923;-77
2021/05/03 00:43:26;;;;;;;;;;;;;;;5.13;100.00;99411.75;4895246;29;19951;-76
2021/05/03 00:45:51;;;;;;;;;;;;;;;4.86;100.00;99417.78;4876757;29;20431;-77
2021/05/03 00:48:16;;;;;;;;;;;;;;;4.93;100.00;99414.38;4895486;29;20037;-77
2021/05/03 00:50:42;;;;;;;;;;;;;;;4.97;100.00;99411.81;4875283;29;20006;-77
2021/05/03 00:53:07;;;;;;;;;;;;;;;4.75;100.00;99416.09;4896758;29;19922;-77
2021/05/03 00:55:33;;;;;;;;;;;;;;;4.86;100.00;99413.53;4883697;29;19926;-77
2021/05/03 00:57:59;;;;;;;;;;;;;;;4.87;100.00;99412.66;4916144;29;19915;-77
2021/05/03 01:00:25;;;;;;;;;;;;;;;4.97;100.00;99416.03;4891358;29;20073;-77
2021/05/03 01:02:50;;;;;;;;;;;;;;;4.90;100.00;99410.09;4916170;29;19927;-77
2021/05/03 01:05:16;;;;;;;;;;;;;;;4.91;100.00;99410.97;4893024;29;19930;-77
2021/05/03 01:07:41;;;;;;;;;;;;;;;4.88;100.00;99406.72;4915730;29;19950;-77
2021/05/03 01:10:07;;;;;;;;;;;;;;;4.82;100.00;99406.75;4876179;29;20004;-77
2021/05/03 01:12:32;;;;;;;;;;;;;;;4.94;100.00;99409.25;4883750;29;19998;-77
2021/05/03 01:14:57;;;;;;;;;;;;;;;4.65;100.00;99408.47;4897904;29;19919;-77
2021/05/03 01:17:30;;;;;;;;;;;;;;;4.57;100.00;99421.25;4897502;29;20381;-77
2021/05/03 01:19:55;;;;;;;;;;;;;;;4.58;100.00;99418.69;4893445;29;19915;-78
2021/05/03 01:22:20;;;;;;;;;;;;;;;4.71;100.00;99413.56;4898504;29;20285;-77
2021/05/03 01:24:46;;;;;;;;;;;;;;;4.60;100.00;99409.31;4897992;29;19934;-77
2021/05/03 01:27:11;;;;;;;;;;;;;;;4.56;100.00;99417.84;4882774;29;19927;-77
2021/05/03 01:29:37;;;;;;;;;;;;;;;4.56;100.00;99420.41;4890519;29;19950;-77
2021/05/03 01:32:02;;;;;;;;;;;;;;;4.24;100.00;99419.53;4898672;29;19919;-78
2021/05/03 01:34:27;;;;;;;;;;;;;;;4.15;100.00;99418.69;4898566;29;20378;-77
2021/05/03 01:36:53;;;;;;;;;;;;;;;4.17;100.00;99414.47;4883117;29;19966;-77
2021/05/03 01:39:18;;;;;;;;;;;;;;;3.97;100.00;99413.59;4891900;29;20425;-77
2021/05/03 01:41:44;;;;;;;;;;;;;;;4.26;100.00;99418.69;4915682;29;20006;-77
2021/05/03 01:44:10;;;;;;;;;;;;;;;4.55;100.00;99418.69;4899008;29;20388;-77
2021/05/03 01:46:36;;;;;;;;;;;;;;;4.63;100.00;99422.91;4879244;29;19915;-77
2021/05/03 01:49:03;;;;;;;;;;;;;;;4.18;100.00;99418.69;4886406;29;19915;-77
2021/05/03 01:51:29;;;;;;;;;;;;;;;4.51;100.00;99421.22;4897480;29;19971;-77
2021/05/03 01:53:54;;;;;;;;;;;;;;;4.59;100.00;99420.38;4902236;29;19919;-77
2021/05/03 01:56:19;;;;;;;;;;;;;;;4.37;100.00;99419.53;4895942;29;20001;-77
2021/05/03 01:58:45;;;;;;;;;;;;;;;4.30;100.00;99427.19;4918786;29;19915;-77
2021/05/03 02:01:10;;;;;;;;;;;;;;;4.42;100.00;99427.19;4895513;29;19915;-77
2021/05/03 02:03:35;;;;;;;;;;;;;;;4.34;100.00;99434.00;4894779;29;19954;-77
2021/05/03 02:06:01;;;;;;;;;;;;;;;4.18;100.00;99428.88;4885684;29;20301;-77
2021/05/03 02:08:27;;;;;;;;;;;;;;;4.25;100.00;99428.91;4902497;29;19943;-77
2021/05/03 02:10:53;;;;;;;;;;;;;;;4.21;100.00;99438.22;4894840;29;20355;-77
2021/05/03 02:13:18;;;;;;;;;;;;;;;4.24;100.00;99433.13;4879289;29;19953;-77
2021/05/03 02:15:47;;;;;;;;;;;;;;;4.26;100.00;99435.69;4897031;29;19945;-77
2021/05/03 02:18:12;;;;;;;;;;;;;;;4.14;100.00;99432.28;4918306;29;19922;-77
2021/05/03 02:20:37;;;;;;;;;;;;;;;4.17;100.00;99434.84;4901572;29;20270;-77
2021/05/03 02:23:03;;;;;;;;;;;;;;;4.24;100.00;99434.81;4901641;29;20452;-77
2021/05/03 02:25:28;;;;;;;;;;;;;;;4.45;100.00;99442.50;4901306;29;19919;-77
2021/05/03 02:27:53;;;;;;;;;;;;;;;4.36;100.00;99445.06;4900644;29;20345;-77
2021/05/03 02:30:19;;;;;;;;;;;;;;;3.91;100.00;99444.16;4917616;29;20420;-77
2021/05/03 02:32:44;;;;;;;;;;;;;;;4.27;100.00;99442.50;4918533;29;19915;-77
2021/05/03 02:35:15;;;;;;;;;;;;;;;4.15;100.00;99439.09;4879819;29;19923;-77
2021/05/03 02:37:41;;;;;;;;;;;;;;;4.16;100.00;99439.94;4901595;29;19939;-77
2021/05/03 02:40:07;;;;;;;;;;;;;;;4.02;100.00;99447.56;4894468;29;19918;-77
2021/05/03 02:42:32;;;;;;;;;;;;;;;3.98;100.00;99451.78;4902289;29;19919;-77
2021/05/03 02:44:57;;;;;;;;;;;;;;;3.88;100.00;99446.69;4885960;29;19947;-77
2021/05/03 02:47:23;;;;;;;;;;;;;;;4.13;100.00;99439.94;4900262;29;19924;-77
2021/05/03 02:49:48;;;;;;;;;;;;;;;4.13;100.00;99434.84;4917384;29;19915;-77
2021/05/03 02:52:13;;;;;;;;;;;;;;;4.23;100.00;99439.09;4899910;29;19921;-77
2021/05/03 02:54:39;;;;;;;;;;;;;;;4.21;100.00;99442.50;4878361;29;20006;-77
2021/05/03 02:57:04;;;;;;;;;;;;;;;4.12;100.00;99439.06;4893709;29;19954;-77
2021/05/03 02:59:30;;;;;;;;;;;;;;;4.09;100.00;99436.53;4917770;29;20035;-77
2021/05/03 03:01:55;;;;;;;;;;;;;;;4.12;100.00;99433.97;4896526;29;19978;-77
2021/05/03 03:04:20;;;;;;;;;;;;;;;4.04;100.00;99440.78;4882771;29;20025;-77
2021/05/03 03:06:46;;;;;;;;;;;;;;;4.07;100.00;99429.72;4882160;29;19929;-77
2021/05/03 03:09:12;;;;;;;;;;;;;;;4.07;100.00;99428.03;4918439;29;19943;-77
2021/05/03 03:11:38;;;;;;;;;;;;;;;3.93;100.00;99427.16;4900412;29;19926;-77
2021/05/03 03:14:03;;;;;;;;;;;;;;;3.92;100.00;99423.78;4901617;29;19915;-77
2021/05/03 03:16:29;;;;;;;;;;;;;;;3.90;100.00;99433.09;4901441;29;19916;-77
2021/05/03 03:18:55;;;;;;;;;;;;;;;3.82;100.00;99433.94;4901670;29;19919;-77
2021/05/03 03:21:20;;;;;;;;;;;;;;;3.76;100.00;99439.84;4891573;29;20494;-77
2021/05/03 03:23:45;;;;;;;;;;;;;;;3.76;100.00;99445.81;4877981;29;20392;-78
2021/05/03 03:26:11;;;;;;;;;;;;;;;3.83;100.00;99439.03;4917151;29;19923;-77
2021/05/03 03:28:36;;;;;;;;;;;;;;;3.73;100.00;99439.84;4895959;29;19966;-77
2021/05/03 03:31:01;;;;;;;;;;;;;;;3.89;100.00;99440.75;4894075;29;19957;-77
2021/05/03 03:33:28;;;;;;;;;;;;;;;3.68;100.00;99450.03;4894815;29;19923;-77
2021/05/03 03:35:53;;;;;;;;;;;;;;;3.60;100.00;99449.13;4899379;29;19926;-77
2021/05/03 03:38:20;;;;;;;;;;;;;;;3.75;100.00;99446.66;4882287;29;19946;-78
2021/05/03 03:40:45;;;;;;;;;;;;;;;3.65;100.00;99437.28;4901212;29;19922;-78
2021/05/03 03:43:11;;;;;;;;;;;;;;;3.63;100.00;99436.44;4912837;29;19927;-77
2021/05/03 03:45:37;;;;;;;;;;;;;;;3.49;100.00;99431.31;4911991;29;19923;-78
2021/05/03 03:48:02;;;;;;;;;;;;;;;3.56;100.00;99432.19;4894840;29;19945;-78
2021/05/03 03:50:28;;;;;;;;;;;;;;;3.42;100.00;99439.75;4895681;29;19950;-78
2021/05/03 03:52:53;;;;;;;;;;;;;;;3.38;100.00;99432.09;4886921;29;19915;-78
2021/05/03 03:55:18;;;;;;;;;;;;;;;3.70;100.00;99435.59;4885303;29;20002;-77
2021/05/03 03:57:44;;;;;;;;;;;;;;;3.64;100.00;99440.66;4895262;29;19920;-78
2021/05/03 04:00:10;;;;;;;;;;;;;;;3.56;100.00;99443.19;4878456;29;20353;-78
2021/05/03 04:02:36;;;;;;;;;;;;;;;3.54;100.00;99433.84;4897107;29;19947;-77
2021/05/03 04:07:52;;;;;;;;;;;;;;;3.54;100.00;99438.97;4909558;29;20017;-78
2021/05/03 04:10:30;;;;;;;;;;;;;;;3.60;100.00;99433.00;4893509;29;20467;-78
2021/05/03 04:21:41;;;;;;;;;;;;;;;3.68;100.00;99434.75;4912697;29;19982;-79
2021/05/03 04:26:08;;;;;;;;;;;;;;;3.46;100.00;99440.59;4893253;29;20086;-79
2021/05/03 04:28:34;;;;;;;;;;;;;;;3.61;100.00;99440.66;4880553;29;20440;-80
2021/05/03 04:30:59;;;;;;;;;;;;;;;3.59;100.00;99436.41;4871501;29;20441;-80
2021/05/03 04:33:24;;;;;;;;;;;;;;;3.63;100.00;99451.72;4876895;29;20017;-79
2021/05/03 04:35:50;;;;;;;;;;;;;;;3.60;100.00;99449.13;4891961;29;19919;-79
2021/05/03 04:38:15;;;;;;;;;;;;;;;3.75;100.00;99454.28;4894101;29;19915;-78
2021/05/03 04:40:44;;;;;;;;;;;;;;;3.64;100.00;99450.84;4879218;29;19919;-79
2021/05/03 04:43:09;;;;;;;;;;;;;;;3.77;100.00;99455.16;4894304;29;19920;-78
2021/05/03 04:45:34;;;;;;;;;;;;;;;3.78;100.00;99454.28;4894254;29;19923;-79
2021/05/03 04:48:00;;;;;;;;;;;;;;;3.66;100.00;99458.50;4881097;29;19915;-79
2021/05/03 04:50:25;;;;;;;;;;;;;;;3.80;100.00;99461.09;4894086;29;19922;-79
2021/05/03 04:52:52;;;;;;;;;;;;;;;3.87;100.00;99458.56;4894165;29;20485;-79
2021/05/03 04:55:18;;;;;;;;;;;;;;;3.87;100.00;99462.81;4910189;29;19985;-80
2021/05/03 04:57:43;;;;;;;;;;;;;;;3.87;100.00;99455.16;4885462;29;19987;-79
2021/05/03 05:00:09;;;;;;;;;;;;;;;3.92;100.00;99462.00;4870597;29;19930;-79
2021/05/03 05:02:34;;;;;;;;;;;;;;;3.88;100.00;99460.28;4884249;29;19923;-79
2021/05/03 05:05:00;;;;;;;;;;;;;;;3.88;100.00;99454.34;4876813;29;20020;-79
2021/05/03 05:07:26;;;;;;;;;;;;;;;3.80;100.00;99450.91;4870414;29;20378;-79
2021/05/03 05:09:51;;;;;;;;;;;;;;;3.83;100.00;99451.78;4883766;29;19925;-78
2021/05/03 05:12:16;;;;;;;;;;;;;;;4.03;100.00;99448.41;4909989;29;19919;-78
2021/05/03 05:14:42;;;;;;;;;;;;;;;4.05;100.00;99446.72;4910179;29;19923;-80
2021/05/03 05:17:08;;;;;;;;;;;;;;;3.99;100.00;99452.63;4894227;29;19947;-80
2021/05/03 05:19:33;;;;;;;;;;;;;;;4.30;100.00;99453.53;4893862;29;20385;-78
2021/05/03 05:21:58;;;;;;;;;;;;;;;4.32;100.00;99459.47;4882108;29;19919;-80
2021/05/03 05:24:24;;;;;;;;;;;;;;;4.45;100.00;99457.81;4883702;29;20017;-80
2021/05/03 05:26:49;;;;;;;;;;;;;;;4.28;100.00;99456.94;4882447;29;19919;-79
2021/05/03 05:29:14;;;;;;;;;;;;;;;4.41;100.00;99456.09;4899926;29;19926;-79
2021/05/03 05:31:40;;;;;;;;;;;;;;;4.51;100.00;99460.34;4884130;29;19942;-80
2021/05/03 05:34:05;;;;;;;;;;;;;;;4.54;100.00;99456.97;4885476;29;19990;-78
2021/05/03 05:36:30;;;;;;;;;;;;;;;4.51;100.00;99462.03;4889454;29;20314;-79
2021/05/03 05:38:56;;;;;;;;;;;;;;;4.53;100.00;99458.63;4884634;29;19998;-79
2021/05/03 05:41:21;;;;;;;;;;;;;;;4.66;100.00;99459.50;4900673;29;20022;-79
2021/05/03 05:43:46;;;;;;;;;;;;;;;4.67;100.00;99463.72;4879060;29;19916;-79
2021/05/03 05:46:12;;;;;;;;;;;;;;;4.73;100.00;99468.00;4898692;29;20025;-79
2021/05/03 05:48:37;;;;;;;;;;;;;;;4.89;100.00;99462.00;4894219;29;19923;-79
2021/05/03 05:51:03;;;;;;;;;;;;;;;5.11;100.00;99456.84;4882107;29;19923;-80
2021/05/03 05:53:32;;;;;;;;;;;;;;;4.97;100.00;99452.66;4897273;29;19994;-79
2021/05/03 05:55:57;;;;;;;;;;;;;;;4.89;100.00;99449.25;4878370;29;19914;-79
2021/05/03 05:58:23;;;;;;;;;;;;;;;5.16;100.00;99448.34;4897960;29;20591;-79
2021/05/03 06:00:48;;;;;;;;;;;;;;;5.08;100.00;99444.09;4883474;29;19915;-79
2021/05/03 06:03:14;;;;;;;;;;;;;;;5.21;100.00;99443.22;4898027;29;19946;-79
2021/05/03 06:05:39;;;;;;;;;;;;;;;5.50;100.00;99432.06;4881378;29;19973;-79
2021/05/03 06:08:04;;;;;;;;;;;;;;;5.52;100.00;99438.84;4867973;29;20017;-79
2021/05/03 06:10:30;;;;;;;;;;;;;;;5.77;100.00;99438.69;4881479;29;19919;-78
2021/05/03 06:12:55;;;;;;;;;;;;;;;5.83;100.00;99436.13;4914325;29;19915;-78
2021/05/03 06:15:20;;;;;;;;;;;;;;;5.54;100.00;99439.69;4913398;29;19938;-79
2021/05/03 06:17:46;;;;;;;;;;;;;;;5.81;100.00;99436.13;4884487;29;20002;-79
2021/05/03 06:20:11;;;;;;;;;;;;;;;5.94;100.00;99433.50;4882154;29;19919;-79
2021/05/03 06:22:37;;;;;;;;;;;;;;;6.13;100.00;99435.09;4893112;29;19983;-79
2021/05/03 06:25:03;;;;;;;;;;;;;;;6.40;100.00;99430.66;4881977;29;19974;-78
2021/05/03 06:27:28;;;;;;;;;;;;;;;6.55;100.00;99425.41;4883521;29;19930;-79
2021/05/03 06:29:53;;;;;;;;;;;;;;;6.76;100.00;99436.31;4897971;29;19997;-79
2021/05/03 06:32:18;;;;;;;;;;;;;;;6.80;100.00;99433.72;4896453;29;19919;-79
2021/05/03 06:34:44;;;;;;;;;;;;;;;6.33;100.00;99431.56;4877904;29;19966;-79
2021/05/03 06:37:09;;;;;;;;;;;;;;;6.51;100.00;99430.56;4895053;29;19923;-79
2021/05/03 06:39:35;;;;;;;;;;;;;;;6.29;100.00;99435.84;4879317;29;19923;-80
2021/05/03 06:42:00;;;;;;;;;;;;;;;6.36;100.00;99426.41;4893419;29;19929;-79
2021/05/03 06:44:26;;;;;;;;;;;;;;;6.57;100.00;99420.25;4879650;29;20002;-79
2021/05/03 06:46:51;;;;;;;;;;;;;;;6.98;100.00;99422.44;4893673;29;19977;-80
2021/05/03 06:49:17;;;;;;;;;;;;;;;7.21;100.00;99418.78;4898122;29;19915;-79
2021/05/03 06:51:42;;;;;;;;;;;;;;;7.30;100.00;99418.66;4897861;29;19975;-79
2021/05/03 06:54:07;;;;;;;;;;;;;;;7.78;100.00;99418.91;4881170;29;19915;-79
2021/05/03 06:56:33;;;;;;;;;;;;;;;7.75;98.99;99424.03;4895501;29;20009;-79
2021/05/03 06:58:58;;;;;;;;;;;;;;;7.50;98.65;99424.38;4879365;29;20059;-79
2021/05/03 07:01:23;;;;;;;;;;;;;;;7.37;99.05;99427.97;4878347;29;19982;-79
2021/05/03 07:03:49;;;;;;;;;;;;;;;7.80;98.51;99426.53;4879842;29;19919;-79
2021/05/03 07:06:14;;;;;;;;;;;;;;;7.75;97.55;99432.59;4879470;29;19933;-80
2021/05/03 07:08:41;;;;;;;;;;;;;;;8.17;97.73;99429.44;4871852;29;19923;-79
2021/05/03 07:11:14;;;;;;;;;;;;;;;8.34;95.98;99424.88;4880541;29;19926;-78
2021/05/03 07:13:39;;;;;;;;;;;;;;;8.16;93.97;99430.28;4894658;29;20293;-79
2021/05/03 07:16:05;;;;;;;;;;;;;;;8.65;94.86;99426.97;4880382;29;19919;-79
2021/05/03 07:18:30;;;;;;;;;;;;;;;8.64;92.90;99426.97;4877680;29;19915;-78
2021/05/03 07:20:55;;;;;;;;;;;;;;;9.06;92.00;99427.94;4881160;29;19923;-78
2021/05/03 07:23:21;;;;;;;;;;;;;;;8.66;93.57;99426.09;4879975;29;20041;-79
2021/05/03 07:25:46;;;;;;;;;;;;;;;9.36;92.21;99436.75;4890834;29;19923;-79
2021/05/03 07:28:12;;;;;;;;;;;;;;;9.46;87.55;99429.72;4886656;29;19929;-78
2021/05/03 07:30:37;;;;;;;;;;;;;;;9.67;84.77;99432.72;4881888;29;19926;-78
2021/05/03 07:33:03;;;;;;;;;;;;;;;9.83;82.87;99431.53;4881534;29;19919;-79
2021/05/03 07:35:28;;;;;;;;;;;;;;;9.81;79.97;99423.00;4895006;29;20014;-79
2021/05/03 07:37:53;;;;;;;;;;;;;;;9.78;79.41;99428.19;4893545;29;19927;-79
2021/05/03 07:40:19;;;;;;;;;;;;;;;9.56;79.78;99428.66;4878860;29;20138;-77
2021/05/03 07:42:44;;;;;;;;;;;;;;;8.92;81.23;99429.94;4908079;29;19926;-77
2021/05/03 07:45:10;;;;;;;;;;;;;;;10.03;79.31;99423.31;4908947;29;19931;-77
2021/05/03 07:47:36;;;;;;;;;;;;;;;9.90;78.17;99420.22;4876141;29;19922;-77
2021/05/03 07:50:01;;;;;;;;;;;;;;;9.97;78.80;99426.91;4875939;29;19919;-77
2021/05/03 07:52:26;;;;;;;;;;;;;;;10.27;79.43;99416.78;4876004;29;19923;-77
2021/05/03 07:54:52;;;;;;;;;;;;;;;9.98;73.07;99425.16;4875864;29;19923;-77
2021/05/03 07:57:17;;;;;;;;;;;;;;;8.75;75.01;99425.06;4877891;29;19919;-77
2021/05/03 07:59:42;;;;;;;;;;;;;;;9.76;77.41;99424.78;4894140;29;19930;-77
2021/05/03 08:02:08;;;;;;;;;;;;;;;9.51;74.02;99425.34;4893638;29;20350;-77
2021/05/03 08:04:33;;;;;;;;;;;;;;;9.24;76.09;99420.72;4874765;29;19944;-77
2021/05/03 08:07:00;;;;;;;;;;;;;;;10.09;72.87;99427.50;4875289;29;20389;-76
2021/05/03 08:09:25;;;;;;;;;;;;;;;10.30;69.22;99421.88;4904365;29;20270;-76
2021/05/03 08:11:52;;;;;;;;;;;;;;;10.68;69.73;99417.50;4905049;29;19926;-76
2021/05/03 08:14:19;;;;;;;;;;;;;;;11.10;69.47;99409.50;4888043;29;20008;-76
2021/05/03 08:16:44;;;;;;;;;;;;;;;10.78;66.97;99424.09;4886458;29;20392;-76
2021/05/03 08:19:10;;;;;;;;;;;;;;;10.01;69.72;99425.97;4885614;29;19927;-76
2021/05/03 08:21:36;;;;;;;;;;;;;;;10.57;64.54;99429.81;4887873;29;20385;-76
2021/05/03 08:24:02;;;;;;;;;;;;;;;11.84;63.32;99418.53;4871227;29;19919;-76
2021/05/03 08:26:27;;;;;;;;;;;;;;;11.37;63.25;99412.22;4874118;29;19950;-76
2021/05/03 08:28:52;;;;;;;;;;;;;;;11.03;65.97;99418.28;4904197;29;19950;-76
2021/05/03 08:31:19;;;;;;;;;;;;;;;11.21;64.23;99406.63;4887628;29;20042;-76
2021/05/03 08:33:44;;;;;;;;;;;;;;;11.81;63.43;99407.47;4904686;29;19919;-76
2021/05/03 08:36:10;;;;;;;;;;;;;;;11.45;61.77;99411.09;4879914;29;19982;-76
2021/05/03 08:38:35;;;;;;;;;;;;;;;11.00;64.14;99408.09;4869853;29;19935;-76
2021/05/03 08:41:02;;;;;;;;;;;;;;;10.82;70.00;99412.00;4871516;29;19990;-76
2021/05/03 08:43:30;;;;;;;;;;;;;;;10.80;63.52;99412.03;4872441;29;19919;-76
2021/05/03 08:45:56;;;;;;;;;;;;;;;12.00;63.35;99398.31;4887635;29;20388;-76
2021/05/03 08:48:27;;;;;;;;;;;;;;;12.52;57.48;99400.91;4856804;29;20014;-76
2021/05/03 08:51:00;;;;;;;;;;;;;;;13.08;57.25;99389.50;4874457;29;20380;-77
2021/05/03 08:53:38;;;;;;;;;;;;;;;10.38;60.25;99401.94;4884644;29;19915;-76
2021/05/03 08:56:04;;;;;;;;;;;;;;;11.71;61.89;99392.25;4871836;29;20489;-76
2021/05/03 08:58:29;;;;;;;;;;;;;;;11.84;58.26;99391.91;4886849;29;19915;-76
2021/05/03 09:00:55;;;;;;;;;;;;;;;12.44;52.36;99393.44;4882553;29;19958;-76
2021/05/03 09:03:20;;;;;;;;;;;;;;;13.25;52.75;99382.00;4886726;29;19950;-76
2021/05/03 09:05:45;;;;;;;;;;;;;;;11.60;52.21;99398.63;4886206;29;19923;-76
2021/05/03 09:08:26;;;;;;;;;;;;;;;11.22;58.24;99387.69;4870990;29;19927;-76
2021/05/03 09:10:52;;;;;;;;;;;;;;;10.67;55.43;99380.59;4882715;29;19915;-76
2021/05/03 09:13:24;;;;;;;;;;;;;;;10.85;53.69;99386.97;4886566;29;19915;-76
2021/05/03 09:15:49;;;;;;;;;;;;;;;10.92;51.15;99384.25;4872326;29;19919;-76
2021/05/03 09:18:15;;;;;;;;;;;;;;;10.69;51.77;99380.53;4902785;29;19926;-76
2021/05/03 09:20:40;;;;;;;;;;;;;;;11.37;52.24;99383.84;4880892;29;19954;-76
2021/05/03 09:23:21;;;;;;;;;;;;;;;11.00;51.22;99385.72;4869435;29;20301;-76
2021/05/03 09:25:52;;;;;;;;;;;;;;;10.61;53.07;99385.06;4902770;29;20326;-76
2021/05/03 09:28:24;;;;;;;;;;;;;;;11.18;52.08;99376.63;4902585;29;19970;-76
2021/05/03 09:30:55;;;;;;;;;;;;;;;11.71;50.72;99365.63;4903353;29;19926;-76
2021/05/03 09:33:23;;;;;;;;;;;;;;;10.88;54.46;99357.72;4902647;29;19923;-76
2021/05/03 09:35:50;;;;;;;;;;;;;;;10.81;52.36;99367.34;4903160;29;19971;-76
2021/05/03 09:38:34;;;;;;;;;;;;;;;12.00;52.87;99369.06;4887177;29;19926;-76
2021/05/03 09:41:25;;;;;;;;;;;;;;;11.43;48.82;99360.47;4902142;29;19919;-76
2021/05/03 09:43:55;;;;;;;;;;;;;;;12.08;50.46;99359.31;4901093;29;19938;-76
2021/05/03 09:46:26;;;;;;;;;;;;;;;13.57;45.61;99346.31;4886463;29;20400;-76
2021/05/03 09:48:52;;;;;;;;;;;;;;;13.64;46.57;99352.97;4896777;29;20330;-76
2021/05/03 09:51:30;;;;;;;;;;;;;;;11.57;46.84;99342.84;4884862;29;20014;-76
2021/05/03 09:54:22;;;;;;;;;;;;;;;12.51;48.13;99343.25;4874481;29;19923;-76
2021/05/03 09:56:49;;;;;;;;;;;;;;;13.16;44.29;99341.78;4898161;29;19919;-75
2021/05/03 09:59:24;;;;;;;;;;;;;;;13.35;42.58;99339.38;4884577;29;19923;-76
2021/05/03 10:02:04;;;;;;;;;;;;;;;13.90;41.17;99338.13;4903371;29;19922;-76
2021/05/03 10:04:31;;;;;;;;;;;;;;;13.61;40.64;99350.47;4903387;29;20405;-76
2021/05/03 10:06:56;;;;;;;;;;;;;;;14.47;45.92;99344.41;4874358;29;19934;-76
2021/05/03 10:09:22;;;;;;;;;;;;;;;14.39;43.70;99342.16;4873855;29;19942;-77
2021/05/03 10:11:48;;;;;;;;;;;;;;;14.15;43.60;99337.97;4889218;29;20434;-77
2021/05/03 10:14:13;;;;;;;;;;;;;;;14.45;40.11;99335.84;4889886;29;19915;-77
2021/05/03 10:16:39;;;;;;;;;;;;;;;14.24;39.44;99337.59;4888824;29;19930;-77
2021/05/03 10:19:05;;;;;;;;;;;;;;;12.47;37.69;99333.91;4889066;29;19925;-77
2021/05/03 10:21:30;;;;;;;;;;;;;;;13.65;39.43;99333.94;4888952;29;19923;-77
2021/05/03 10:23:56;;;;;;;;;;;;;;;12.09;42.82;99333.47;4871001;29;20651;-77
2021/05/03 10:26:21;;;;;;;;;;;;;;;12.01;40.32;99322.53;4889214;29;19926;-76
2021/05/03 10:28:57;;;;;;;;;;;;;;;12.31;43.36;99323.25;4873372;29;19919;-77
2021/05/03 10:31:22;;;;;;;;;;;;;;;12.65;43.60;99308.34;4905962;29;19926;-77
2021/05/03 10:33:48;;;;;;;;;;;;;;;12.60;44.01;99310.25;4875448;29;19919;-76
2021/05/03 10:36:33;;;;;;;;;;;;;;;12.00;36.65;99310.53;4889266;29;19926;-77
2021/05/03 10:38:58;;;;;;;;;;;;;;;14.34;35.86;99301.78;4861825;29;20010;-77
2021/05/03 10:41:33;;;;;;;;;;;;;;;16.01;36.34;99296.75;4889804;29;20013;-77
2021/05/03 10:44:10;;;;;;;;;;;;;;;16.37;37.97;99289.75;4889464;29;20417;-75
2021/05/03 10:54:18;;;;;;;;;;;;;;;13.62;37.69;99297.00;4905956;29;19919;-76
2021/05/03 10:56:44;;;;;;;;;;;;;;;15.99;33.86;99282.16;4905364;29;19923;-77
2021/05/03 10:59:10;;;;;;;;;;;;;;;14.36;32.47;99280.06;4874242;29;19978;-76
2021/05/03 11:01:54;;;;;;;;;;;;;;;14.88;33.78;99274.38;4888891;29;19915;-77
2021/05/03 11:04:19;;;;;;;;;;;;;;;15.63;34.09;99273.47;4874127;29;20043;-76
2021/05/03 11:06:48;;;;;;;;;;;;;;;15.36;33.37;99260.03;4884734;29;20013;-77
2021/05/03 11:09:28;;;;;;;;;;;;;;;15.23;34.30;99271.91;4905981;29;19966;-77
2021/05/03 11:11:57;;;;;;;;;;;;;;;13.78;36.96;99269.59;4872959;29;19915;-77
2021/05/03 11:14:23;;;;;;;;;;;;;;;13.10;36.80;99261.84;4888488;29;19924;-77
2021/05/03 11:16:50;;;;;;;;;;;;;;;13.41;40.33;99262.44;4904717;29;19915;-77
2021/05/03 11:19:43;;;;;;;;;;;;;;;13.84;35.31;99265.88;4887599;29;20090;-77
2021/05/03 11:22:10;;;;;;;;;;;;;;;14.55;39.95;99248.22;4873042;29;19919;-76
2021/05/03 11:24:46;;;;;;;;;;;;;;;16.56;36.17;99240.25;4874329;29;19923;-76
2021/05/03 11:29:44;;;;;;;;;;;;;;;14.11;40.64;99238.84;4904652;29;20006;-77
2021/05/03 11:32:11;;;;;;;;;;;;;;;13.69;33.71;99247.50;4875012;29;19915;-77
2021/05/03 11:34:57;;;;;;;;;;;;;;;13.77;33.66;99240.25;4904884;29;19978;-77
2021/05/03 11:37:33;;;;;;;;;;;;;;;14.55;33.88;99238.69;4856959;29;19919;-77
2021/05/03 11:40:08;;;;;;;;;;;;;;;13.91;37.93;99231.94;4868501;29;19923;-78
2021/05/03 11:43:13;;;;;;;;;;;;;;;16.18;34.08;99214.50;4860367;29;19923;-78
2021/05/03 11:45:39;;;;;;;;;;;;;;;13.91;39.05;99225.88;4884574;29;20359;-77
2021/05/03 11:48:04;;;;;;;;;;;;;;;13.23;35.55;99226.03;4868295;29;19919;-78
2021/05/03 11:50:30;;;;;;;;;;;;;;;14.04;40.01;99221.03;4887955;29;20455;-78
2021/05/03 11:52:55;;;;;;;;;;;;;;;15.87;36.29;99216.94;4890086;29;19919;-77
2021/05/03 11:55:22;;;;;;;;;;;;;;;15.85;32.52;99213.56;4872105;29;20369;-77
2021/05/03 11:57:48;;;;;;;;;;;;;;;17.36;35.05;99195.16;4907333;29;19919;-77
2021/05/03 12:00:15;;;;;;;;;;;;;;;15.87;31.00;99203.06;4889481;29;19919;-78
2021/05/03 12:02:40;;;;;;;;;;;;;;;14.80;29.70;99211.66;4887642;29;19919;-75
2021/05/03 12:05:17;;;;;;;;;;;;;;;17.04;35.73;99195.19;4886258;29;20021;-76
2021/05/03 12:07:43;;;;;;;;;;;;;;;13.50;35.52;99210.31;4885797;29;20472;-75
2021/05/03 12:10:10;;;;;;;;;;;;;;;13.97;36.08;99204.94;4886544;29;19919;-76
2021/05/03 12:12:39;;;;;;;;;;;;;;;13.18;38.74;99207.25;4874649;29;20293;-77
2021/05/03 12:15:08;;;;;;;;;;;;;;;12.98;38.39;99198.53;4884675;29;19927;-77
2021/05/03 12:17:34;;;;;;;;;;;;;;;13.11;38.67;99198.03;4888760;29;19915;-78
2021/05/03 12:20:06;;;;;;;;;;;;;;;12.70;38.23;99198.75;4859584;29;20018;-75
2021/05/03 12:22:31;;;;;;;;;;;;;;;12.38;38.27;99196.50;4904271;29;20420;-78
2021/05/03 12:25:03;;;;;;;;;;;;;;;12.50;38.72;99191.75;4887708;29;19923;-77
2021/05/03 12:27:29;;;;;;;;;;;;;;;14.30;35.32;99175.88;4886872;29;22074;-77
2021/05/03 12:29:54;;;;;;;;;;;;;;;11.86;42.22;99191.38;4871729;29;19926;-77
2021/05/03 12:32:19;;;;;;;;;;;;;;;11.65;45.44;99180.91;4887427;29;21114;-77
2021/05/03 12:34:48;;;;;;;;;;;;;;;11.97;44.28;99181.56;4871910;29;19920;-77
2021/05/03 12:37:20;;;;;;;;;;;;;;;11.58;45.68;99183.75;4885729;29;19974;-77
2021/05/03 12:39:55;;;;;;;;;;;;;;;11.95;45.71;99177.38;4888820;29;20390;-78
2021/05/03 12:42:21;;;;;;;;;;;;;;;12.91;40.78;99171.25;4881057;29;19926;-78
2021/05/03 12:44:55;;;;;;;;;;;;;;;14.37;39.11;99165.19;4867970;29;19973;-78
2021/05/03 12:47:51;;;;;;;;;;;;;;;15.94;39.14;99162.88;4878509;29;19934;-78
2021/05/03 12:50:24;;;;;;;;;;;;;;;14.02;39.11;99162.38;4887722;29;19918;-78
2021/05/03 12:53:05;;;;;;;;;;;;;;;14.22;41.62;99158.91;4875596;29;19919;-77
2021/05/03 12:55:30;;;;;;;;;;;;;;;14.06;40.31;99157.91;4881627;29;19927;-78
2021/05/03 12:58:09;;;;;;;;;;;;;;;13.50;40.38;99148.22;4875203;29;20421;-78
2021/05/03 13:00:47;;;;;;;;;;;;;;;14.09;37.23;99151.75;4859663;29;19915;-76
2021/05/03 13:03:16;;;;;;;;;;;;;;;15.27;36.11;99139.38;4872917;29;19919;-77
2021/05/03 13:05:51;;;;;;;;;;;;;;;13.00;40.37;99148.50;4885653;29;20415;-75
2021/05/03 13:30:01;;;;;;;;;;;;;;;13.83;37.38;99124.44;4855706;29;19920;-75
2021/05/03 13:32:27;;;;;;;;;;;;;;;13.69;39.14;99127.63;4843452;29;20483;-75
2021/05/03 13:34:53;;;;;;;;;;;;;;;15.77;34.14;99111.81;4863684;29;20022;-74